FAHS

Hoedspruit Air Force Base Airport

Hoedspruit, South Africa
METAR FAHS 140100Z AUTO 18008KT //// // ////// 22/19 Q1021
Observed Flight Rules
Dec-14 @ 01:00 UTC (45 minutes ago)
Wind
180° at 8 knots
Temperatures Readings
Current 22°C / 72°F
Dewpoint 19°C / 66°F
Humidity 83%
Altimeter 30.15" Hg
Pressure 1021 hPa
Elevation 500
METAR FAHS 140100Z AUTO 18008KT //// // ////// 22/19 Q1021
Observed Flight Rules
Dec-14 @ 01:00 UTC
(45 minutes ago)
Wind
180° at 8 knots
Temperature Dewpoint
22°C / 72°F 19°C / 66°F
Humidity Altimeter Pressure
83% 30.15" Hg 1021 hPa